Time;durP1;ratioP1;P1;durP2;ratioP2;P2;SDS_P1;SDS_P2;PMS_P1;PMS_P2;Temp;Humidity;BMP_temperature;BMP_pressure;BME280_temperature;BME280_humidity;BME280_pressure;Samples;Min_cycle;Max_cycle;Signal;HPM_P1;HPM_P2
2023/06/28 00:02:20;;;;;;;7.13;5.68;;;;;;;22.05;100.00;100823.78;5054912;28;20032;-73
2023/06/28 00:04:46;;;;;;;6.53;5.63;;;;;;;22.65;100.00;100883.09;5054293;28;20021;-72
2023/06/28 00:07:11;;;;;;;7.15;5.43;;;;;;;22.19;100.00;100887.69;5053420;28;20025;-72
2023/06/28 00:12:58;;;;;;;9.73;5.75;;;;;;;22.26;100.00;100863.91;5054775;28;20063;-73
2023/06/28 00:15:23;;;;;;;5.82;4.93;;;;;;;22.55;100.00;100885.41;5053338;28;20062;-73
2023/06/28 00:17:49;;;;;;;6.95;5.82;;;;;;;22.14;100.00;100835.34;5054382;28;20113;-73
2023/06/28 00:20:14;;;;;;;7.22;6.20;;;;;;;22.36;100.00;100921.19;5052594;28;20115;-73
2023/06/28 00:22:40;;;;;;;8.82;5.65;;;;;;;22.13;100.00;100850.03;5053627;28;20112;-73
2023/06/28 00:25:06;;;;;;;6.25;5.30;;;;;;;22.18;100.00;100875.69;5053959;28;20349;-73
2023/06/28 00:27:31;;;;;;;7.60;5.70;;;;;;;21.76;100.00;100870.47;5052324;28;20036;-73
2023/06/28 00:29:57;;;;;;;7.28;5.65;;;;;;;21.93;100.00;100873.75;5053030;28;20545;-73
2023/06/28 00:32:24;;;;;;;8.65;5.50;;;;;;;21.94;100.00;100878.00;5052054;28;20472;-73
2023/06/28 00:34:50;;;;;;;7.00;5.18;;;;;;;21.96;100.00;100870.97;5053825;28;20107;-73
2023/06/28 00:37:15;;;;;;;8.15;5.40;;;;;;;21.86;100.00;100831.03;5051988;28;20185;-73
2023/06/28 00:39:41;;;;;;;6.50;5.63;;;;;;;21.92;100.00;100869.50;5052042;28;20025;-73
2023/06/28 00:42:06;;;;;;;5.65;5.05;;;;;;;22.21;100.00;100888.44;5053561;28;20032;-73
2023/06/28 00:44:31;;;;;;;7.15;5.30;;;;;;;22.43;100.00;100894.81;5053834;28;20029;-73
2023/06/28 00:46:58;;;;;;;6.38;5.18;;;;;;;22.09;100.00;100869.28;5052390;28;20029;-73
2023/06/28 00:49:26;;;;;;;5.97;5.38;;;;;;;22.28;100.00;100866.41;5052228;28;20111;-73
2023/06/28 00:51:53;;;;;;;5.68;4.85;;;;;;;22.06;100.00;100828.06;5054012;28;20514;-73
2023/06/28 00:54:18;;;;;;;6.53;5.45;;;;;;;22.13;100.00;100818.97;5053344;28;20464;-73
2023/06/28 01:00:11;;;;;;;7.70;5.60;;;;;;;22.07;100.00;100855.59;5054100;28;20090;-74
2023/06/28 01:02:41;;;;;;;9.93;5.15;;;;;;;21.57;100.00;100827.56;5035636;28;20049;-73
2023/06/28 01:05:09;;;;;;;6.47;5.55;;;;;;;21.58;100.00;100821.47;5035800;28;20150;-73
2023/06/28 01:07:36;;;;;;;8.23;5.45;;;;;;;21.66;100.00;100828.78;5052027;28;20533;-73
2023/06/28 01:10:04;;;;;;;10.60;6.18;;;;;;;21.06;100.00;100819.41;5051754;28;20031;-73
2023/06/28 01:12:29;;;;;;;9.45;5.90;;;;;;;21.40;100.00;100868.28;5051440;28;20112;-73
2023/06/28 01:14:55;;;;;;;11.27;6.35;;;;;;;21.52;100.00;100868.41;5053167;28;20028;-73
2023/06/28 01:17:21;;;;;;;12.30;6.97;;;;;;;21.00;100.00;100811.97;5051389;28;20479;-72
2023/06/28 01:19:46;;;;;;;10.88;6.72;;;;;;;20.96;100.00;100803.56;5053078;28;20078;-73
2023/06/28 01:25:34;;;;;;;8.55;6.80;;;;;;;20.68;100.00;100741.44;5048609;28;20056;-73
2023/06/28 01:27:59;;;;;;;9.43;7.00;;;;;;;21.26;100.00;100850.16;5051173;28;20076;-73
2023/06/28 01:30:25;;;;;;;11.98;7.25;;;;;;;21.05;100.00;100825.53;5051547;28;20052;-73
2023/06/28 01:32:52;;;;;;;10.77;6.28;;;;;;;20.87;100.00;100834.31;5034920;28;20494;-73
2023/06/28 01:35:17;;;;;;;7.75;5.80;;;;;;;20.66;100.00;100808.72;5053219;28;20035;-72
2023/06/28 01:37:43;;;;;;;6.25;5.68;;;;;;;20.88;100.00;100834.19;5050819;28;20029;-73
2023/06/28 01:40:11;;;;;;;9.60;6.13;;;;;;;20.69;100.00;100849.94;5053181;28;20032;-72
2023/06/28 01:42:38;;;;;;;7.68;5.82;;;;;;;20.88;100.00;100844.53;5052437;28;20056;-72
2023/06/28 01:48:26;;;;;;;10.80;6.10;;;;;;;21.10;100.00;100885.56;5052876;28;20118;-72
2023/06/28 01:50:52;;;;;;;11.25;6.40;;;;;;;20.93;100.00;100919.28;5052094;28;20028;-72
2023/06/28 01:53:18;;;;;;;7.55;6.25;;;;;;;20.95;100.00;100902.78;5051280;28;20472;-73
2023/06/28 01:55:44;;;;;;;7.32;5.90;;;;;;;20.66;100.00;100903.53;5051319;28;20052;-72
2023/06/28 01:58:09;;;;;;;9.93;6.18;;;;;;;21.15;100.00;100971.53;5052201;28;20020;-72
2023/06/28 02:00:35;;;;;;;9.23;6.63;;;;;;;21.00;100.00;100972.31;5052518;28;20021;-75
2023/06/28 02:03:00;;;;;;;14.15;6.85;;;;;;;21.04;100.00;100942.81;5034355;28;20033;-72
2023/06/28 02:08:47;;;;;;;9.80;6.40;;;;;;;21.21;100.00;100969.44;5052881;28;20514;-75
2023/06/28 02:11:13;;;;;;;9.65;6.18;;;;;;;20.71;100.00;100951.50;5051743;28;20037;-72
2023/06/28 02:13:38;;;;;;;11.40;6.53;;;;;;;20.28;100.00;100913.34;5050869;28;20028;-73
2023/06/28 02:16:03;;;;;;;11.52;6.80;;;;;;;20.19;100.00;100892.31;5050747;28;20455;-73
2023/06/28 02:18:31;;;;;;;15.75;7.10;;;;;;;20.19;100.00;100926.75;5034142;28;20068;-73
2023/06/28 02:20:56;;;;;;;9.95;6.25;;;;;;;20.36;100.00;100894.88;5052537;28;20063;-74
2023/06/28 02:23:22;;;;;;;10.93;6.15;;;;;;;20.72;100.00;100931.63;5051758;28;20041;-73
2023/06/28 02:25:48;;;;;;;9.25;6.35;;;;;;;20.32;100.00;100881.25;5052276;28;20553;-73
2023/06/28 02:28:13;;;;;;;8.55;5.80;;;;;;;20.61;100.00;100890.88;5052273;28;20125;-73
2023/06/28 02:30:39;;;;;;;9.43;6.68;;;;;;;20.60;100.00;100911.63;5052082;28;20021;-73
2023/06/28 02:33:04;;;;;;;11.55;6.53;;;;;;;20.96;100.00;100952.72;5051114;28;20029;-73
2023/06/28 02:38:51;;;;;;;9.50;6.63;;;;;;;20.27;100.00;100826.44;5052321;28;20040;-73
2023/06/28 02:41:17;;;;;;;13.40;6.47;;;;;;;20.62;100.00;100920.97;5050111;28;20032;-73
2023/06/28 02:43:42;;;;;;;12.77;7.18;;;;;;;20.57;100.00;100891.97;5050402;28;20029;-73
2023/06/28 02:46:07;;;;;;;13.43;7.10;;;;;;;20.58;100.00;100891.03;5051591;28;20106;-73
2023/06/28 02:48:33;;;;;;;11.68;7.05;;;;;;;20.50;100.00;100893.19;5033779;28;20127;-73
2023/06/28 02:50:58;;;;;;;12.05;6.70;;;;;;;20.63;100.00;100899.38;5051880;28;20021;-73
2023/06/28 02:53:24;;;;;;;10.98;6.43;;;;;;;20.63;100.00;100899.38;5051538;28;20075;-74
2023/06/28 02:55:49;;;;;;;12.25;7.38;;;;;;;20.74;100.00;100960.81;5051872;28;20017;-74
2023/06/28 03:01:36;;;;;;;13.05;7.80;;;;;;;20.36;100.00;100885.34;5052260;28;20114;-74
2023/06/28 03:04:02;;;;;;;13.20;7.72;;;;;;;21.03;100.00;101000.66;5050594;28;20024;-75
2023/06/28 03:06:27;;;;;;;10.88;7.63;;;;;;;20.40;100.00;100884.25;5033997;28;20021;-75
2023/06/28 03:08:53;;;;;;;10.90;7.60;;;;;;;20.62;100.00;100933.88;5055562;28;20036;-73
2023/06/28 03:14:40;;;;;;;12.20;8.38;;;;;;;20.66;100.00;100953.47;5052305;28;20040;-73
2023/06/28 03:20:27;;;;;;;13.20;8.32;;;;;;;20.74;100.00;100933.22;5052292;28;20036;-75
2023/06/28 03:26:14;;;;;;;19.47;9.03;;;;;;;21.45;100.00;100999.09;5046236;28;20106;-74
2023/06/28 03:28:39;;;;;;;12.00;9.13;;;;;;;20.86;100.00;100947.22;5051214;28;20272;-73
2023/06/28 03:31:05;;;;;;;17.60;8.70;;;;;;;20.88;100.00;101017.78;5050122;28;20112;-74
2023/06/28 03:33:30;;;;;;;16.70;7.82;;;;;;;20.98;100.00;100968.97;5051192;28;20025;-74
2023/06/28 03:35:55;;;;;;;13.77;8.50;;;;;;;20.43;100.00;100925.47;5051249;28;20103;-82
2023/06/28 03:38:21;;;;;;;14.43;7.78;;;;;;;21.14;100.00;101063.81;5051329;28;20167;-82
2023/06/28 03:40:47;;;;;;;17.70;8.55;;;;;;;20.84;100.00;100987.03;5034912;28;20029;-79
2023/06/28 03:43:12;;;;;;;16.40;8.77;;;;;;;20.76;100.00;100999.53;5051205;28;20467;-85
2023/06/28 03:45:38;;;;;;;17.02;8.35;;;;;;;20.89;100.00;101011.72;5054747;28;20033;-80
2023/06/28 03:48:03;;;;;;;18.15;8.82;;;;;;;20.78;100.00;100995.91;5055301;28;20021;-85
2023/06/28 03:50:29;;;;;;;23.00;10.10;;;;;;;20.96;100.00;101056.16;5055939;28;20104;-80
2023/06/28 03:56:16;;;;;;;19.50;13.35;;;;;;;21.30;100.00;101082.75;5056936;28;20040;-83
2023/06/28 04:02:03;;;;;;;20.25;13.70;;;;;;;20.91;100.00;101014.22;5057459;28;20087;-81
2023/06/28 04:04:29;;;;;;;29.27;15.38;;;;;;;21.15;100.00;101056.88;5061847;28;20032;-82
2023/06/28 04:06:54;;;;;;;17.98;12.10;;;;;;;21.47;100.00;101128.44;5062605;28;20450;-79
2023/06/28 04:09:20;;;;;;;21.58;10.80;;;;;;;21.66;100.00;101128.25;5038823;28;20082;-83
2023/06/28 04:11:45;;;;;;;15.95;11.02;;;;;;;21.54;100.00;101124.59;5055323;28;20021;-80
2023/06/28 04:14:10;;;;;;;21.58;11.90;;;;;;;21.76;100.00;101130.25;5055685;28;20033;-84
2023/06/28 04:16:36;;;;;;;18.98;11.25;;;;;;;21.00;100.00;101058.50;5054452;28;20128;-75
2023/06/28 04:19:01;;;;;;;17.77;12.55;;;;;;;22.02;100.00;101147.78;5054538;28;20463;-84
2023/06/28 04:21:26;;;;;;;17.80;12.88;;;;;;;21.95;100.00;101143.84;5038124;28;20036;-85
2023/06/28 04:23:52;;;;;;;19.08;12.05;;;;;;;21.94;100.00;101138.78;5055528;28;20021;-75
2023/06/28 04:26:19;;;;;;;17.65;12.05;;;;;;;21.92;100.00;101144.06;5053732;28;20037;-76
2023/06/28 04:28:45;;;;;;;19.83;16.70;;;;;;;21.37;100.00;101080.69;5053932;28;20025;-75
2023/06/28 04:31:10;;;;;;;15.73;13.70;;;;;;;21.43;100.00;101104.44;5054589;28;20040;-81
2023/06/28 04:33:36;;;;;;;19.55;12.52;;;;;;;21.24;100.00;101080.50;5055542;28;20143;-82
2023/06/28 04:36:02;;;;;;;24.95;12.68;;;;;;;21.20;100.00;101089.34;5055327;28;20036;-80
2023/06/28 04:41:51;;;;;;;14.63;11.33;;;;;;;21.21;100.00;101083.28;5056170;28;20044;-82
2023/06/28 04:44:16;;;;;;;17.60;12.43;;;;;;;21.51;100.00;101143.69;5054377;28;20462;-81
2023/06/28 04:46:45;;;;;;;18.33;11.80;;;;;;;21.73;100.00;101148.53;5054256;28;20086;-82
2023/06/28 04:49:10;;;;;;;25.13;12.35;;;;;;;21.35;100.00;101072.97;5037804;28;20047;-78
2023/06/28 04:54:57;;;;;;;33.80;19.75;;;;;;;21.96;100.00;101085.97;5054991;28;20117;-76
2023/06/28 05:00:45;;;;;;;32.08;24.38;;;;;;;22.65;100.00;101125.09;5054893;28;20031;-77
2023/06/28 05:03:14;;;;;;;17.67;15.27;;;;;;;22.51;100.00;101088.75;5053188;28;20463;-76
2023/06/28 05:05:40;;;;;;;15.43;13.18;;;;;;;22.89;100.00;101094.25;5053499;28;20115;-77
2023/06/28 05:08:07;;;;;;;17.42;13.40;;;;;;;23.14;100.00;101148.91;5053018;28;20171;-77
2023/06/28 05:10:33;;;;;;;19.80;14.98;;;;;;;22.73;100.00;101070.19;5036624;28;20032;-78
2023/06/28 05:12:58;;;;;;;18.05;13.20;;;;;;;23.00;100.00;101103.06;5053095;28;20475;-80
2023/06/28 05:15:24;;;;;;;19.38;12.95;;;;;;;22.76;100.00;101016.34;5054316;28;20021;-78
2023/06/28 05:21:11;;;;;;;14.32;11.55;;;;;;;23.88;100.00;101046.34;5054883;28;20068;-77
2023/06/28 05:23:37;;;;;;;16.50;10.93;;;;;;;24.19;100.00;101044.31;5052511;28;20025;-78
2023/06/28 05:26:03;;;;;;;16.77;10.20;;;;;;;24.11;100.00;100947.84;5053051;28;20073;-78
2023/06/28 05:28:28;;;;;;;15.32;10.15;;;;;;;23.85;100.00;100887.22;5052972;28;20166;-77
2023/06/28 05:30:53;;;;;;;12.88;9.70;;;;;;;24.23;100.00;100890.63;5054003;28;20074;-77
2023/06/28 05:33:19;;;;;;;18.98;8.48;;;;;;;24.36;100.00;100911.41;5054003;28;20029;-78
2023/06/28 05:35:44;;;;;;;15.65;8.70;;;;;;;24.32;100.00;100857.97;5053362;28;20032;-77
2023/06/28 05:38:10;;;;;;;8.95;8.00;;;;;;;24.56;100.00;100818.00;5052434;28;20020;-77
2023/06/28 05:40:35;;;;;;;12.23;9.02;;;;;;;24.36;100.00;100789.22;5051760;28;20025;-78
2023/06/28 05:43:00;;;;;;;10.63;8.93;;;;;;;25.31;100.00;100816.78;5053195;28;20029;-78
2023/06/28 05:45:28;;;;;;;11.98;8.63;;;;;;;25.69;100.00;100798.25;5051791;28;20045;-78
2023/06/28 05:47:54;;;;;;;10.73;8.57;;;;;;;25.72;100.00;100787.56;5053679;28;20055;-79
2023/06/28 05:50:22;;;;;;;10.68;8.65;;;;;;;25.30;100.00;100713.53;5052570;28;20498;-78
2023/06/28 05:52:48;;;;;;;12.85;9.07;;;;;;;25.77;100.00;100733.31;5053759;28;20086;-78
2023/06/28 05:58:35;;;;;;;11.77;8.85;;;;;;;25.38;100.00;100664.31;5054200;28;20032;-78
2023/06/28 06:01:02;;;;;;;13.20;7.63;;;;;;;26.14;100.00;100694.75;5053317;28;20017;-76
2023/06/28 06:03:28;;;;;;;14.75;8.50;;;;;;;25.29;100.00;100593.88;5052292;28;20028;-78
2023/06/28 06:05:54;;;;;;;12.93;7.78;;;;;;;25.59;100.00;100596.69;5053373;28;20403;-78
2023/06/28 06:11:41;;;;;;;8.38;6.82;;;;;;;26.77;100.00;100684.25;5053603;28;20058;-77
2023/06/28 06:14:07;;;;;;;11.18;7.28;;;;;;;26.40;100.00;100741.22;5053086;28;20128;-77
2023/06/28 06:16:32;;;;;;;11.18;7.53;;;;;;;26.34;100.00;100798.28;5053437;28;20470;-77
2023/06/28 06:18:58;;;;;;;10.27;7.25;;;;;;;27.02;100.00;100939.72;5035395;28;20040;-76
2023/06/28 06:21:24;;;;;;;9.75;7.70;;;;;;;26.66;100.00;100955.72;5051531;28;20104;-77
2023/06/28 06:23:49;;;;;;;9.00;7.00;;;;;;;26.63;100.00;100933.31;5053424;28;20032;-79
2023/06/28 06:26:14;;;;;;;9.07;7.15;;;;;;;27.36;100.00;100765.41;5031452;28;20488;-76
2023/06/28 06:32:01;;;;;;;;;;;;;;;27.73;100.00;100690.69;5034020;28;20087;-74
2023/06/28 06:34:27;;;;;;;23.90;7.70;;;;;;;27.13;100.00;100829.19;5033094;28;20318;-77
2023/06/28 06:36:54;;;;;;;21.75;8.10;;;;;;;27.47;100.00;101038.88;5031207;28;20382;-75
2023/06/28 06:39:20;;;;;;;20.63;7.88;;;;;;;27.10;100.00;100979.13;5033238;28;20093;-74
2023/06/28 06:45:07;;;;;;;12.85;7.30;;;;;;;27.79;100.00;101584.41;5033845;28;20063;-79
2023/06/28 06:47:37;;;;;;;13.65;8.45;;;;;;;27.83;100.00;101982.59;5031005;28;20476;-75
2023/06/28 06:50:02;;;;;;;24.15;8.20;;;;;;;27.87;100.00;101992.72;5032720;28;20075;-76
2023/06/28 06:52:28;;;;;;;11.10;7.18;;;;;;;28.34;100.00;102206.78;5033723;28;20017;-77
2023/06/28 06:54:53;;;;;;;10.18;7.63;;;;;;;28.29;100.00;102673.06;5032688;28;20026;-77
2023/06/28 06:57:19;;;;;;;9.95;7.38;;;;;;;28.03;100.00;102720.00;5032494;28;20026;-77
2023/06/28 06:59:44;;;;;;;16.15;7.60;;;;;;;28.39;100.00;102686.44;5031922;28;20021;-76
2023/06/28 07:02:09;;;;;;;12.68;7.45;;;;;;;28.70;100.00;102458.41;5032892;28;20419;-77
2023/06/28 07:04:35;;;;;;;9.40;6.93;;;;;;;28.49;100.00;102132.41;5032491;28;20120;-76
2023/06/28 07:07:00;;;;;;;25.88;7.70;;;;;;;29.04;100.00;102067.38;5033039;28;20144;-77
2023/06/28 07:09:26;;;;;;;20.05;7.40;;;;;;;28.86;100.00;101030.50;5032762;28;20037;-76
2023/06/28 07:11:52;;;;;;;30.00;6.75;;;;;;;28.39;100.00;100751.06;5031391;28;20025;-76
2023/06/28 07:14:17;;;;;;;11.23;7.43;;;;;;;29.15;100.00;100772.00;5047781;28;20021;-76
2023/06/28 07:16:44;;;;;;;8.68;6.88;;;;;;;28.80;100.00;100740.34;5030975;28;20172;-75
2023/06/28 07:19:13;;;;;;;8.85;6.82;;;;;;;28.85;100.00;100691.81;5031380;28;20017;-76
2023/06/28 07:21:39;;;;;;;10.18;6.80;;;;;;;28.66;100.00;100662.25;5051194;28;20403;-76
2023/06/28 07:24:05;;;;;;;8.90;6.78;;;;;;;28.92;100.00;100525.25;5051848;28;20025;-77
2023/06/28 07:29:56;;;;;;;13.77;7.47;;;;;;;29.71;100.00;100349.72;5036693;28;20063;-75
2023/06/28 07:32:21;;;;;;;8.85;6.88;;;;;;;28.99;100.00;99985.94;5035021;28;20037;-77
2023/06/28 07:34:47;;;;;;;10.63;6.47;;;;;;;29.87;100.00;100083.09;5051201;28;20028;-76
2023/06/28 07:40:34;;;;;;;10.85;6.40;;;;;;;29.63;100.00;100012.25;5054615;28;20101;-75
2023/06/28 07:43:02;;;;;;;9.85;6.40;;;;;;;29.63;100.00;100062.06;5049929;28;20030;-74
2023/06/28 07:45:28;;;;;;;11.07;6.68;;;;;;;29.72;100.00;100037.53;5036394;28;20044;-75
2023/06/28 07:51:15;;;;;;;35.88;7.80;;;;;;;29.68;100.00;99930.50;5035746;28;20031;-75
2023/06/28 07:53:42;;;;;;;24.40;7.78;;;;;;;30.71;100.00;99962.69;5050464;28;20116;-75
2023/06/28 07:56:07;;;;;;;12.20;7.45;;;;;;;30.00;100.00;99895.53;5035642;28;20124;-75
2023/06/28 07:58:36;;;;;;;7.90;6.40;;;;;;;30.52;100.00;99873.88;5034660;28;20079;-75
2023/06/28 08:01:02;;;;;;;11.93;7.00;;;;;;;29.61;100.00;99835.97;5050875;28;20032;-76
2023/06/28 08:03:27;;;;;;;6.90;6.05;;;;;;;29.76;100.00;99939.19;5035074;28;20037;-75
2023/06/28 08:05:52;;;;;;;9.55;6.07;;;;;;;30.68;100.00;100115.34;5033683;28;20017;-77
2023/06/28 08:08:18;;;;;;;8.93;6.43;;;;;;;30.32;100.00;100192.84;5051069;28;20377;-76
2023/06/28 08:10:43;;;;;;;6.57;5.88;;;;;;;30.32;100.00;100202.53;5035506;28;20151;-74
2023/06/28 08:13:09;;;;;;;9.35;6.38;;;;;;;31.03;100.00;100412.88;5034300;28;20108;-75
2023/06/28 08:15:36;;;;;;;7.60;5.93;;;;;;;30.43;100.00;100331.66;5035833;28;20092;-76
2023/06/28 08:18:05;;;;;;;7.53;6.80;;;;;;;30.83;100.00;100246.00;5035169;28;20444;-78
2023/06/28 08:20:31;;;;;;;6.70;6.10;;;;;;;31.16;100.00;100209.00;5050924;28;20022;-76
2023/06/28 08:22:56;;;;;;;6.72;6.05;;;;;;;31.25;100.00;100079.19;5036566;28;20105;-78
2023/06/28 08:32:37;;;;;;;7.72;6.97;;;;;;;30.82;100.00;99824.91;5054811;28;20048;-77
2023/06/28 08:35:04;;;;;;;7.28;6.55;;;;;;;30.75;100.00;99858.94;5054818;28;20467;-76
2023/06/28 08:37:34;;;;;;;7.13;6.45;;;;;;;30.13;100.00;99853.84;5052934;28;20517;-76
2023/06/28 08:39:59;;;;;;;6.75;6.15;;;;;;;31.14;100.00;99722.16;5055284;28;20067;-76
2023/06/28 08:42:27;;;;;;;12.50;6.25;;;;;;;31.59;100.00;99718.56;5055010;28;20433;-75
2023/06/28 08:44:56;;;;;;;7.35;6.25;;;;;;;30.58;100.00;99641.31;5054465;28;20028;-74
2023/06/28 08:47:22;;;;;;;7.28;5.70;;;;;;;31.14;100.00;99659.09;5054347;28;20029;-74
2023/06/28 08:49:48;;;;;;;7.72;5.63;;;;;;;31.47;100.00;99580.69;5054842;28;20040;-75
2023/06/28 08:52:15;;;;;;;11.13;5.70;;;;;;;30.73;100.00;99607.97;5054353;28;20453;-74
2023/06/28 08:54:42;;;;;;;6.35;5.75;;;;;;;31.91;100.00;99528.66;5053517;28;20471;-76
2023/06/28 08:57:07;;;;;;;7.00;5.13;;;;;;;30.71;100.00;99544.31;5054574;28;20602;-76
2023/06/28 08:59:32;;;;;;;5.75;5.10;;;;;;;31.69;100.00;99499.97;5036286;28;20112;-75
2023/06/28 09:01:59;;;;;;;6.43;5.50;;;;;;;32.30;100.00;99489.53;5054878;28;20021;-75
2023/06/28 09:04:29;;;;;;;6.55;5.63;;;;;;;32.21;100.00;99522.25;5053205;28;20024;-75
2023/06/28 09:06:55;;;;;;;6.53;5.63;;;;;;;31.16;100.00;99643.97;5053975;28;20090;-76
2023/06/28 09:09:21;;;;;;;7.25;5.30;;;;;;;32.34;100.00;99621.56;5054228;28;20399;-74
2023/06/28 09:11:47;;;;;;;7.10;5.85;;;;;;;32.20;100.00;99675.13;5053105;28;20025;-75
2023/06/28 09:14:12;;;;;;;6.40;5.70;;;;;;;31.82;100.00;99716.59;5053334;28;20047;-77
2023/06/28 09:16:38;;;;;;;7.97;5.70;;;;;;;32.53;100.00;99683.31;5035868;28;20017;-76
2023/06/28 09:19:03;;;;;;;6.75;6.03;;;;;;;31.85;100.00;99695.19;5053574;28;20059;-76
2023/06/28 09:21:29;;;;;;;6.97;6.28;;;;;;;31.13;100.00;99765.22;5052956;28;20128;-76
2023/06/28 09:23:56;;;;;;;7.40;6.53;;;;;;;31.95;100.00;99715.97;5052670;28;20028;-74
2023/06/28 09:26:33;;;;;;;6.75;6.05;;;;;;;31.87;100.00;99737.09;5053725;28;20432;-79
2023/06/28 09:29:00;;;;;;;7.50;6.47;;;;;;;32.83;100.00;99754.09;5054502;28;20506;-75
2023/06/28 09:31:30;;;;;;;8.82;5.70;;;;;;;32.07;100.00;99807.38;5053862;28;20040;-75
2023/06/28 09:33:55;;;;;;;6.78;5.95;;;;;;;30.93;100.00;99766.72;5053754;28;20167;-77
2023/06/28 09:36:22;;;;;;;11.93;6.18;;;;;;;31.95;100.00;99819.38;5036099;28;20119;-75
2023/06/28 09:42:10;;;;;;;7.63;6.25;;;;;;;31.65;100.00;99815.13;5053981;28;20040;-75
2023/06/28 09:47:58;;;;;;;7.93;6.50;;;;;;;30.32;100.00;99808.84;5054065;28;20510;-78
2023/06/28 09:50:42;;;;;;;8.07;6.00;;;;;;;30.71;100.00;99847.16;5051865;28;20029;-75
2023/06/28 09:53:19;;;;;;;8.85;6.13;;;;;;;31.75;100.00;99841.16;5053143;28;20044;-75
2023/06/28 09:59:08;;;;;;;7.47;5.97;;;;;;;33.07;100.00;99879.41;5053299;28;20120;-76
2023/06/28 10:01:39;;;;;;;8.00;6.30;;;;;;;31.27;100.00;99850.34;5053618;28;20065;-76
2023/06/28 10:04:08;;;;;;;6.90;6.18;;;;;;;32.07;100.00;99880.28;5052976;28;20486;-76
2023/06/28 10:06:35;;;;;;;7.03;6.25;;;;;;;31.37;100.00;99837.75;5053135;28;20032;-75
2023/06/28 10:09:01;;;;;;;10.40;6.80;;;;;;;31.99;100.00;99888.28;5050533;28;20033;-75
2023/06/28 10:11:31;;;;;;;7.85;5.70;;;;;;;31.46;100.00;99900.63;5051946;28;20490;-76
2023/06/28 10:13:58;;;;;;;8.45;6.07;;;;;;;30.56;100.00;99853.31;5051076;28;20051;-75
2023/06/28 10:19:48;;;;;;;8.15;6.07;;;;;;;32.27;100.00;99878.69;5053382;28;20089;-76
2023/06/28 10:22:15;;;;;;;6.85;6.25;;;;;;;32.63;100.00;99841.84;5052730;28;20112;-75
2023/06/28 10:24:42;;;;;;;8.00;6.70;;;;;;;31.56;100.00;99874.06;5052889;28;20021;-76
2023/06/28 10:27:08;;;;;;;10.70;6.80;;;;;;;31.36;100.00;99878.16;5053262;28;20068;-76
2023/06/28 10:29:35;;;;;;;9.52;7.35;;;;;;;31.07;100.00;99875.47;5050433;28;20045;-75
2023/06/28 10:32:01;;;;;;;8.65;7.20;;;;;;;31.16;100.00;99872.59;5052511;28;20021;-76
2023/06/28 10:34:28;;;;;;;8.18;6.45;;;;;;;31.06;100.00;99861.50;5051040;28;20029;-76
2023/06/28 10:36:53;;;;;;;9.55;6.78;;;;;;;30.30;100.00;99810.81;5052781;28;20028;-76
2023/06/28 10:39:19;;;;;;;8.60;6.53;;;;;;;30.46;100.00;99801.06;5034288;28;20037;-76
2023/06/28 10:41:44;;;;;;;8.18;6.32;;;;;;;30.13;100.00;99769.91;5034336;28;20131;-74
2023/06/28 10:44:10;;;;;;;7.03;6.20;;;;;;;30.04;100.00;99847.81;5052175;28;20025;-74
2023/06/28 10:46:39;;;;;;;8.68;6.63;;;;;;;31.30;100.00;99856.03;5050717;28;20032;-74
2023/06/28 10:49:04;;;;;;;6.25;5.75;;;;;;;31.69;100.00;99832.19;5052300;28;20104;-74
2023/06/28 10:51:31;;;;;;;7.20;6.50;;;;;;;30.03;100.00;99825.19;5051578;28;20060;-74
2023/06/28 10:57:19;;;;;;;;;;;;;;;31.34;100.00;99872.28;5056697;28;20146;-74
2023/06/28 10:59:46;;;;;;;7.10;6.25;;;;;;;31.43;100.00;99816.03;5038493;28;19999;-74
2023/06/28 11:02:11;;;;;;;9.25;6.50;;;;;;;31.42;100.00;99827.53;5054969;28;20486;-75
2023/06/28 11:08:09;;;;;;;8.40;6.68;;;;;;;32.47;100.00;99823.69;5056430;28;20032;-75
2023/06/28 11:10:40;;;;;;;8.18;6.10;;;;;;;32.18;100.00;99798.22;5038435;28;20029;-74
2023/06/28 11:13:13;;;;;;;6.88;6.28;;;;;;;31.31;100.00;99833.22;5057145;28;20029;-75
2023/06/28 11:15:46;;;;;;;7.28;6.32;;;;;;;31.39;100.00;99822.66;5055217;28;20032;-75
2023/06/28 11:18:16;;;;;;;8.27;6.55;;;;;;;31.37;100.00;99816.72;5053472;28;20059;-74
2023/06/28 11:20:50;;;;;;;9.10;6.65;;;;;;;32.02;100.00;99867.66;5055522;28;20031;-76
2023/06/28 11:23:42;;;;;;;11.35;6.43;;;;;;;31.89;100.00;99877.97;5056129;28;20519;-77
2023/06/28 11:26:12;;;;;;;8.98;6.78;;;;;;;32.58;100.00;99833.69;5052410;28;20032;-77
2023/06/28 11:28:47;;;;;;;7.53;6.68;;;;;;;32.54;100.00;99871.94;5054820;28;20053;-74
2023/06/28 11:31:43;;;;;;;9.35;6.85;;;;;;;32.88;100.00;99882.66;5055122;28;20453;-75
2023/06/28 11:34:13;;;;;;;9.75;6.30;;;;;;;32.58;100.00;99881.13;5042899;28;20037;-75
2023/06/28 11:36:41;;;;;;;8.38;6.80;;;;;;;32.08;100.00;99876.66;5054192;28;20025;-75
2023/06/28 11:39:07;;;;;;;8.55;6.75;;;;;;;31.73;100.00;99820.31;5054184;28;20064;-75
2023/06/28 11:41:35;;;;;;;15.50;6.65;;;;;;;32.29;100.00;99784.53;5055900;28;20407;-75
2023/06/28 11:47:23;;;;;;;7.72;6.72;;;;;;;30.47;100.00;99796.59;5055488;28;20491;-75
2023/06/28 11:49:49;;;;;;;8.00;7.20;;;;;;;30.39;100.00;99891.13;5053739;28;20025;-74
2023/06/28 11:52:16;;;;;;;7.32;6.63;;;;;;;30.51;100.00;99829.38;5055708;28;20035;-75
2023/06/28 11:54:42;;;;;;;10.20;6.97;;;;;;;29.58;100.00;99828.44;5056146;28;20021;-79
2023/06/28 11:57:09;;;;;;;11.23;7.65;;;;;;;29.07;100.00;99708.31;5058617;28;20029;-79
2023/06/28 11:59:34;;;;;;;11.20;7.65;;;;;;;28.94;100.00;99601.47;5075564;28;20047;-79
2023/06/28 12:02:04;;;;;;;8.93;7.78;;;;;;;29.61;100.00;99521.41;5059873;28;20200;-78
2023/06/28 12:04:31;;;;;;;11.55;7.88;;;;;;;29.27;100.00;99544.56;5056926;28;20052;-80
2023/06/28 12:06:59;;;;;;;12.32;7.63;;;;;;;30.17;100.00;99530.59;5056062;28;20144;-80
2023/06/28 12:09:29;;;;;;;8.75;7.75;;;;;;;31.03;100.00;99556.28;5055472;28;20178;-79
2023/06/28 12:12:02;;;;;;;10.03;7.10;;;;;;;30.40;100.00;99577.81;5055515;28;20124;-78
2023/06/28 12:14:29;;;;;;;9.48;7.03;;;;;;;30.88;100.00;99652.69;5056460;28;20343;-82
2023/06/28 12:16:55;;;;;;;7.95;7.15;;;;;;;30.94;100.00;99668.50;5054548;28;20043;-82
2023/06/28 12:22:45;;;;;;;8.63;6.82;;;;;;;31.44;100.00;99752.75;5056472;28;20044;-81
2023/06/28 12:25:12;;;;;;;7.82;6.93;;;;;;;30.93;100.00;99695.78;5055787;28;22274;-81
2023/06/28 12:27:41;;;;;;;9.07;7.32;;;;;;;31.11;100.00;99719.91;5054298;28;20064;-82
2023/06/28 12:33:28;;;;;;;10.02;7.45;;;;;;;30.62;100.00;99709.00;5060412;28;20147;-82
2023/06/28 12:35:56;;;;;;;7.85;6.93;;;;;;;30.69;100.00;99711.75;5058704;28;20471;-82
2023/06/28 12:38:23;;;;;;;12.38;7.50;;;;;;;31.50;100.00;99812.50;5053971;28;20021;-83
2023/06/28 12:40:48;;;;;;;10.40;7.40;;;;;;;30.61;100.00;99728.41;5054760;28;20040;-81
2023/06/28 12:43:17;;;;;;;8.70;7.38;;;;;;;31.08;100.00;99798.28;5054690;28;20037;-83
2023/06/28 12:45:51;;;;;;;8.20;7.30;;;;;;;30.57;100.00;99808.50;5055835;28;20081;-81
2023/06/28 12:48:23;;;;;;;8.68;7.60;;;;;;;30.47;100.00;99771.16;5054824;28;20041;-80
2023/06/28 12:50:51;;;;;;;13.00;7.03;;;;;;;30.69;100.00;99782.66;5054853;28;20081;-83
2023/06/28 12:53:17;;;;;;;11.60;7.25;;;;;;;30.41;100.00;99740.38;5053812;28;20021;-78
2023/06/28 12:55:43;;;;;;;8.15;7.35;;;;;;;31.41;100.00;99839.88;5055580;28;20162;-77
2023/06/28 12:58:09;;;;;;;9.70;7.05;;;;;;;30.45;100.00;99757.41;5054696;28;20056;-78
2023/06/28 13:00:40;;;;;;;8.23;7.00;;;;;;;31.22;100.00;99795.66;5054015;28;20057;-79
2023/06/28 13:03:05;;;;;;;7.40;6.53;;;;;;;30.85;100.00;99814.06;5053636;28;20063;-77
2023/06/28 13:05:31;;;;;;;8.25;6.30;;;;;;;30.53;100.00;99791.47;5054780;28;20025;-76
2023/06/28 13:07:57;;;;;;;9.35;6.30;;;;;;;30.83;100.00;99852.81;5053105;28;20029;-80
2023/06/28 13:10:22;;;;;;;11.00;5.85;;;;;;;30.18;100.00;99814.78;5054685;28;20034;-77